createdAt,value
2023-01-08T00:02:01.993Z,4.1
2023-01-08T00:04:49.439Z,4.1
2023-01-08T00:07:36.745Z,4
2023-01-08T00:10:24.839Z,4
2023-01-08T00:13:12.115Z,4
2023-01-08T00:15:59.757Z,4
2023-01-08T00:18:49.481Z,3.9
2023-01-08T00:21:36.931Z,3.9
2023-01-08T00:24:24.279Z,3.9
2023-01-08T00:27:12.133Z,3.9
2023-01-08T00:29:59.634Z,3.9
2023-01-08T00:32:48.726Z,3.9
2023-01-08T00:35:36.022Z,3.9
2023-01-08T00:38:24.480Z,3.9
2023-01-08T00:41:12.952Z,3.8
2023-01-08T00:44:01.716Z,3.8
2023-01-08T00:46:49.083Z,3.8
2023-01-08T00:49:36.348Z,3.8
2023-01-08T00:52:23.983Z,3.7
2023-01-08T00:55:11.606Z,3.7
2023-01-08T00:57:58.906Z,3.7
2023-01-08T01:00:47.066Z,3.7
2023-01-08T01:03:34.472Z,3.6
2023-01-08T01:06:21.797Z,3.6
2023-01-08T01:09:09.064Z,3.6
2023-01-08T01:11:57.143Z,3.6
2023-01-08T01:14:44.465Z,3.5
2023-01-08T01:17:31.795Z,3.5
2023-01-08T01:20:19.428Z,3.5
2023-01-08T01:23:08.333Z,3.5
2023-01-08T01:25:55.877Z,3.4
2023-01-08T01:28:43.649Z,3.4
2023-01-08T01:31:33.611Z,3.4
2023-01-08T01:34:21.059Z,3.4
2023-01-08T01:37:08.461Z,3.4
2023-01-08T01:39:57.840Z,3.4
2023-01-08T01:42:45.338Z,3.4
2023-01-08T01:45:32.684Z,3.3
2023-01-08T01:48:20.006Z,3.3
2023-01-08T01:51:07.384Z,3.3
2023-01-08T01:53:54.643Z,3.3
2023-01-08T01:56:42.476Z,3.3
2023-01-08T01:59:31.140Z,3.3
2023-01-08T02:02:20.589Z,3.3
2023-01-08T02:05:09.658Z,3.3
2023-01-08T02:07:57.231Z,3.3
2023-01-08T02:10:52.111Z,3.3
2023-01-08T02:13:46.734Z,3.2
2023-01-08T02:16:40.313Z,3.2
2023-01-08T02:19:32.711Z,3.2
2023-01-08T02:22:27.438Z,3.2
2023-01-08T02:25:28.619Z,3.2
2023-01-08T02:28:30.948Z,3.2
2023-01-08T02:31:23.571Z,3.2
2023-01-08T02:34:13.877Z,3.1
2023-01-08T02:37:01.470Z,3.1
2023-01-08T02:39:49.081Z,3.2
2023-01-08T02:42:48.880Z,3.2
2023-01-08T02:45:44.848Z,3.2
2023-01-08T02:48:35.513Z,3.1
2023-01-08T02:51:28.699Z,3.1
2023-01-08T02:54:24.772Z,3.1
2023-01-08T02:57:16.368Z,3.1
2023-01-08T03:00:05.655Z,3.1
2023-01-08T03:02:55.099Z,3.1
2023-01-08T03:05:51.489Z,3
2023-01-08T03:08:43.759Z,3
2023-01-08T03:11:34.068Z,3
2023-01-08T03:14:29.763Z,3
2023-01-08T03:17:25.199Z,3
2023-01-08T03:20:17.740Z,3
2023-01-08T03:23:08.267Z,3
2023-01-08T03:25:57.489Z,3
2023-01-08T03:28:47.290Z,3
2023-01-08T03:31:38.371Z,3
2023-01-08T03:34:28.284Z,3
2023-01-08T03:37:17.491Z,3
2023-01-08T03:40:10.227Z,2.9
2023-01-08T03:43:02.776Z,2.9
2023-01-08T03:45:50.343Z,2.9
2023-01-08T03:48:42.901Z,2.9
2023-01-08T03:51:31.470Z,2.9
2023-01-08T03:54:25.487Z,2.9
2023-01-08T03:57:16.377Z,2.9
2023-01-08T04:00:04.092Z,2.9
2023-01-08T04:02:53.149Z,2.8
2023-01-08T04:05:40.686Z,2.8
2023-01-08T04:08:27.992Z,2.8
2023-01-08T04:11:15.259Z,2.8
2023-01-08T04:14:02.735Z,2.8
2023-01-08T04:16:50.044Z,2.8
2023-01-08T04:19:37.321Z,2.8
2023-01-08T04:22:24.863Z,2.8
2023-01-08T04:25:12.219Z,2.8
2023-01-08T04:28:00.361Z,2.8
2023-01-08T04:30:48.424Z,2.8
2023-01-08T04:33:35.913Z,2.8
2023-01-08T04:36:23.977Z,2.8
2023-01-08T04:39:11.407Z,2.7
2023-01-08T04:41:59.338Z,2.7
2023-01-08T04:44:47.746Z,2.7
2023-01-08T04:47:35.277Z,2.7
2023-01-08T04:50:22.732Z,2.7
2023-01-08T04:53:10.236Z,2.7
2023-01-08T04:55:57.528Z,2.6
2023-01-08T04:58:48.869Z,2.6
2023-01-08T05:01:37.271Z,2.6
2023-01-08T05:04:24.728Z,2.6
2023-01-08T05:07:12.147Z,2.6
2023-01-08T05:09:59.646Z,2.6
2023-01-08T05:12:48.539Z,2.6
2023-01-08T05:15:35.937Z,2.6
2023-01-08T05:18:23.271Z,2.5
2023-01-08T05:21:10.924Z,2.5
2023-01-08T05:23:58.671Z,2.5
2023-01-08T05:26:46.599Z,2.5
2023-01-08T05:29:34.103Z,2.5
2023-01-08T05:32:21.557Z,2.5
2023-01-08T05:35:08.800Z,2.5
2023-01-08T05:37:56.243Z,2.4
2023-01-08T05:40:44.742Z,2.5
2023-01-08T05:43:32.013Z,2.4
2023-01-08T05:46:20.202Z,2.4
2023-01-08T05:49:07.740Z,2.4
2023-01-08T05:51:55.161Z,2.4
2023-01-08T05:54:42.495Z,2.4
2023-01-08T05:57:29.802Z,2.4
2023-01-08T06:00:17.126Z,2.4
2023-01-08T06:03:04.830Z,2.4
2023-01-08T06:05:52.161Z,2.4
2023-01-08T06:08:43.529Z,2.4
2023-01-08T06:11:30.769Z,2.3
2023-01-08T06:14:18.022Z,2.3
2023-01-08T06:17:05.339Z,2.2
2023-01-08T06:19:52.676Z,2.2
2023-01-08T06:22:39.889Z,2.2
2023-01-08T06:25:27.190Z,2.2
2023-01-08T06:28:14.622Z,2.2
2023-01-08T06:31:02.308Z,2.2
2023-01-08T06:33:50.152Z,2.3
2023-01-08T06:36:37.560Z,2.3
2023-01-08T06:39:24.821Z,2.3
2023-01-08T06:42:12.994Z,2.3
2023-01-08T06:45:00.578Z,2.3
2023-01-08T06:47:48.518Z,2.3
2023-01-08T06:50:35.771Z,2.3
2023-01-08T06:53:23.137Z,2.3
2023-01-08T06:56:10.483Z,2.3
2023-01-08T06:58:58.157Z,2.3
2023-01-08T07:01:45.868Z,2.2
2023-01-08T07:04:34.257Z,2.2
2023-01-08T07:07:21.563Z,2.2
2023-01-08T07:10:08.937Z,2.2
2023-01-08T07:12:56.733Z,2.2
2023-01-08T07:15:44.333Z,2.2
2023-01-08T07:18:31.557Z,2.2
2023-01-08T07:21:19.056Z,2.2
2023-01-08T07:24:07.207Z,2.2
2023-01-08T07:26:54.889Z,2.2
2023-01-08T07:29:42.274Z,2.2
2023-01-08T07:32:30.477Z,2.2
2023-01-08T07:35:17.764Z,2.2
2023-01-08T07:38:05.067Z,2.2
2023-01-08T07:40:52.312Z,2.2
2023-01-08T07:43:40.160Z,2.2
2023-01-08T07:46:27.466Z,2.2
2023-01-08T07:49:14.843Z,2.3
2023-01-08T07:52:02.093Z,2.3
2023-01-08T07:54:49.729Z,2.3
2023-01-08T07:57:36.983Z,2.4
2023-01-08T08:00:24.250Z,2.4
2023-01-08T08:03:12.255Z,2.5
2023-01-08T08:06:00.173Z,2.5
2023-01-08T08:08:48.271Z,2.5
2023-01-08T08:11:35.561Z,2.5
2023-01-08T08:14:23.225Z,2.6
2023-01-08T08:17:10.531Z,2.6
2023-01-08T08:19:57.741Z,2.7
2023-01-08T08:22:45.173Z,2.7
2023-01-08T08:25:32.484Z,2.7
2023-01-08T08:28:20.328Z,2.8
2023-01-08T08:31:07.957Z,2.8
2023-01-08T08:33:55.438Z,2.8
2023-01-08T08:36:42.768Z,2.9
2023-01-08T08:39:30.117Z,3
2023-01-08T08:42:17.560Z,3.1
2023-01-08T08:45:05.410Z,3.1
2023-01-08T08:47:53.969Z,3.2
2023-01-08T08:50:41.612Z,3.3
2023-01-08T08:53:29.286Z,3.3
2023-01-08T08:56:16.633Z,3.4
2023-01-08T08:59:04.144Z,3.5
2023-01-08T09:01:53.929Z,3.5
2023-01-08T09:04:41.374Z,3.6
2023-01-08T09:07:28.744Z,3.6
2023-01-08T09:10:16.066Z,3.7
2023-01-08T09:13:03.401Z,3.7
2023-01-08T09:15:51.056Z,3.8
2023-01-08T09:18:38.500Z,3.8
2023-01-08T09:21:25.817Z,3.9
2023-01-08T09:24:13.225Z,4
2023-01-08T09:27:00.711Z,4
2023-01-08T09:29:48.854Z,4.1
2023-01-08T09:32:36.227Z,4.2
2023-01-08T09:35:25.049Z,4.2
2023-01-08T09:38:13.262Z,4.4
2023-01-08T09:41:01.105Z,4.4
2023-01-08T09:43:52.351Z,4.5
2023-01-08T09:46:43.334Z,4.5
2023-01-08T09:49:32.739Z,4.6
2023-01-08T09:52:26.845Z,4.6
2023-01-08T09:55:16.604Z,4.7
2023-01-08T09:58:04.511Z,4.8
2023-01-08T10:01:00.797Z,4.8
2023-01-08T10:03:49.223Z,4.9
2023-01-08T10:06:41.993Z,4.9
2023-01-08T10:09:36.675Z,5
2023-01-08T10:12:25.708Z,5.1
2023-01-08T10:15:15.328Z,5.2
2023-01-08T10:18:05.032Z,5.2
2023-01-08T10:20:57.589Z,5.3
2023-01-08T10:23:44.925Z,5.3
2023-01-08T10:26:37.143Z,5.4
2023-01-08T10:29:24.472Z,5.5
2023-01-08T10:32:11.771Z,5.5
2023-01-08T10:35:01.752Z,5.6
2023-01-08T10:37:51.464Z,5.6
2023-01-08T10:40:39.299Z,5.6
2023-01-08T10:43:33.323Z,5.6
2023-01-08T10:46:27.232Z,5.7
2023-01-08T10:49:20.670Z,5.7
2023-01-08T10:52:16.724Z,5.7
2023-01-08T10:55:10.485Z,5.8
2023-01-08T10:58:06.729Z,5.8
2023-01-08T11:01:00.556Z,5.8
2023-01-08T11:03:56.055Z,6
2023-01-08T11:06:45.981Z,6.1
2023-01-08T11:09:33.740Z,6.2
2023-01-08T11:12:27.089Z,6.3
2023-01-08T11:15:20.894Z,6.3
2023-01-08T11:18:16.007Z,6.5
2023-01-08T11:21:06.679Z,6.6
2023-01-08T11:24:04.747Z,6.6
2023-01-08T11:27:02.886Z,6.7
2023-01-08T11:29:55.085Z,6.7
2023-01-08T11:32:47.972Z,6.7
2023-01-08T11:35:41.141Z,6.7
2023-01-08T11:38:33.888Z,6.8
2023-01-08T11:41:21.175Z,6.8
2023-01-08T11:44:22.189Z,6.9
2023-01-08T11:47:23.354Z,6.9
2023-01-08T11:50:23.970Z,6.9
2023-01-08T11:53:20.923Z,6.8
2023-01-08T11:56:16.281Z,6.8
2023-01-08T11:59:19.849Z,6.8
2023-01-08T12:02:18.553Z,6.8
2023-01-08T12:05:19.187Z,6.8
2023-01-08T12:08:12.493Z,6.8
2023-01-08T12:11:08.981Z,6.9
2023-01-08T12:14:05.725Z,6.9
2023-01-08T12:17:09.503Z,6.9
2023-01-08T12:20:20.035Z,6.8
2023-01-08T12:23:17.226Z,6.8
2023-01-08T12:26:19.031Z,6.8
2023-01-08T12:29:14.756Z,6.8
2023-01-08T12:32:21.005Z,6.8
2023-01-08T12:35:14.144Z,6.8
2023-01-08T12:38:08.403Z,6.7
2023-01-08T12:41:01.848Z,6.7
2023-01-08T12:43:54.152Z,6.7
2023-01-08T12:46:45.630Z,6.6
2023-01-08T12:49:35.886Z,6.6
2023-01-08T12:52:30.212Z,6.6
2023-01-08T12:55:24.516Z,6.6
2023-01-08T12:58:23.226Z,6.6
2023-01-08T13:01:18.913Z,6.6
2023-01-08T13:04:15.262Z,6.5
2023-01-08T13:07:03.381Z,6.5
2023-01-08T13:09:51.041Z,6.5
2023-01-08T13:12:41.446Z,6.5
2023-01-08T13:15:28.978Z,6.5
2023-01-08T13:18:18.165Z,6.5
2023-01-08T13:21:06.494Z,6.5
2023-01-08T13:23:57.016Z,6.5
2023-01-08T13:26:49.066Z,6.5
2023-01-08T13:29:36.448Z,6.4
2023-01-08T13:32:26.058Z,6.4
2023-01-08T13:35:27.195Z,6.4
2023-01-08T13:38:16.475Z,6.4
2023-01-08T13:41:06.740Z,6.3
2023-01-08T13:44:10.031Z,6.3
2023-01-08T13:47:11.704Z,6.3
2023-01-08T13:50:08.031Z,6.3
2023-01-08T13:53:02.859Z,6.3
2023-01-08T13:55:51.813Z,6.3
2023-01-08T13:58:42.975Z,6.2
2023-01-08T14:01:36.954Z,6.2
2023-01-08T14:04:24.279Z,6.2
2023-01-08T14:07:12.080Z,6.2
2023-01-08T14:09:59.595Z,6.2
2023-01-08T14:12:58.417Z,6.2
2023-01-08T14:15:53.905Z,6.2
2023-01-08T14:18:46.489Z,6.1
2023-01-08T14:21:35.484Z,6.1
2023-01-08T14:24:23.018Z,6.1
2023-01-08T14:27:11.497Z,6.1
2023-01-08T14:30:07.142Z,6.1
2023-01-08T14:33:02.726Z,6.1
2023-01-08T14:35:57.661Z,6.1
2023-01-08T14:38:46.511Z,6
2023-01-08T14:41:35.629Z,6
2023-01-08T14:45:41.769Z,6
2023-01-08T14:48:33.132Z,6
2023-01-08T14:51:27.875Z,5.9
2023-01-08T14:54:16.832Z,5.9
2023-01-08T14:57:08.647Z,5.9
2023-01-08T14:59:57.586Z,5.9
2023-01-08T15:02:47.422Z,5.9
2023-01-08T15:05:35.136Z,5.9
2023-01-08T15:08:33.038Z,5.9
2023-01-08T15:11:23.173Z,5.9
2023-01-08T15:14:12.477Z,5.8
2023-01-08T15:17:01.398Z,5.9
2023-01-08T15:19:55.957Z,5.8
2023-01-08T15:22:44.779Z,5.8
2023-01-08T15:25:32.513Z,5.8
2023-01-08T15:28:19.995Z,5.8
2023-01-08T15:31:07.649Z,5.8
2023-01-08T15:33:54.941Z,5.8
2023-01-08T15:36:43.835Z,5.9
2023-01-08T15:39:31.328Z,5.9
2023-01-08T15:42:19.274Z,5.9
2023-01-08T15:45:40.973Z,5.9
2023-01-08T15:48:30.248Z,5.9
2023-01-08T15:51:17.535Z,5.9
2023-01-08T15:54:04.865Z,5.9
2023-01-08T15:56:57.135Z,5.8
2023-01-08T15:59:44.444Z,5.8
2023-01-08T16:02:32.101Z,5.8
2023-01-08T16:05:26.493Z,5.8
2023-01-08T16:08:15.059Z,5.8
2023-01-08T16:11:02.301Z,5.8
2023-01-08T16:13:49.773Z,5.8
2023-01-08T16:16:37.345Z,5.8
2023-01-08T16:19:25.156Z,5.7
2023-01-08T16:22:14.995Z,5.7
2023-01-08T16:25:02.294Z,5.7
2023-01-08T16:27:50.385Z,5.7
2023-01-08T16:30:37.905Z,5.7
2023-01-08T16:33:27.164Z,5.7
2023-01-08T16:36:14.673Z,5.7
2023-01-08T16:39:01.868Z,5.6
2023-01-08T16:41:49.398Z,5.6
2023-01-08T16:44:36.757Z,5.6
2023-01-08T16:47:24.619Z,5.6
2023-01-08T16:50:12.074Z,5.6
2023-01-08T16:52:59.438Z,5.5
2023-01-08T16:55:47.561Z,5.5
2023-01-08T16:58:35.001Z,5.5
2023-01-08T17:01:22.722Z,5.5
2023-01-08T17:04:10.660Z,5.5
2023-01-08T17:06:58.069Z,5.5
2023-01-08T17:09:45.584Z,5.5
2023-01-08T17:12:33.014Z,5.5
2023-01-08T17:15:20.359Z,5.5
2023-01-08T17:18:07.754Z,5.5
2023-01-08T17:20:55.145Z,5.5
2023-01-08T17:23:42.559Z,5.4
2023-01-08T17:26:31.054Z,5.4
2023-01-08T17:29:19.012Z,5.4
2023-01-08T17:32:07.016Z,5.4
2023-01-08T17:34:56.062Z,5.4
2023-01-08T17:37:43.525Z,5.4
2023-01-08T17:40:31.547Z,5.4
2023-01-08T17:43:19.226Z,5.4
2023-01-08T17:46:07.068Z,5.4
2023-01-08T17:48:54.511Z,5.4
2023-01-08T17:51:41.819Z,5.5
2023-01-08T17:54:30.538Z,5.4
2023-01-08T17:57:17.832Z,5.4
2023-01-08T18:00:06.655Z,5.4
2023-01-08T18:02:55.548Z,5.4
2023-01-08T18:05:43.720Z,5.4
2023-01-08T18:08:31.554Z,5.4
2023-01-08T18:11:19.062Z,5.4
2023-01-08T18:14:06.914Z,5.4
2023-01-08T18:16:56.310Z,5.4
2023-01-08T18:19:43.580Z,5.4
2023-01-08T18:22:30.982Z,5.4
2023-01-08T18:25:18.275Z,5.4
2023-01-08T18:28:05.769Z,5.4
2023-01-08T18:30:53.028Z,5.4
2023-01-08T18:33:40.252Z,5.4
2023-01-08T18:36:27.817Z,5.4
2023-01-08T18:39:15.325Z,5.4
2023-01-08T18:42:02.696Z,5.3
2023-01-08T18:45:22.336Z,5.3
2023-01-08T18:48:09.723Z,5.3
2023-01-08T18:50:57.231Z,5.3
2023-01-08T18:53:49.822Z,5.3
2023-01-08T18:56:38.199Z,5.3
2023-01-08T18:59:25.613Z,5.3
2023-01-08T19:02:13.012Z,5.3
2023-01-08T19:05:05.076Z,5.3
2023-01-08T19:07:52.939Z,5.3
2023-01-08T19:10:40.240Z,5.3
2023-01-08T19:13:27.658Z,5.3
2023-01-08T19:16:15.085Z,5.3
2023-01-08T19:19:03.132Z,5.3
2023-01-08T19:21:50.503Z,5.3
2023-01-08T19:24:37.768Z,5.3
2023-01-08T19:27:25.227Z,5.3
2023-01-08T19:30:12.934Z,5.3
2023-01-08T19:33:01.285Z,5.3
2023-01-08T19:35:49.664Z,5.3
2023-01-08T19:38:37.193Z,5.3
2023-01-08T19:41:25.766Z,5.3
2023-01-08T19:44:45.170Z,5.3
2023-01-08T19:47:32.494Z,5.3
2023-01-08T19:50:20.274Z,5.3
2023-01-08T19:53:08.469Z,5.2
2023-01-08T19:55:55.867Z,5.3
2023-01-08T19:58:48.152Z,5.3
2023-01-08T20:01:36.009Z,5.3
2023-01-08T20:04:24.326Z,5.3
2023-01-08T20:07:11.875Z,5.3
2023-01-08T20:10:00.577Z,5.3
2023-01-08T20:12:50.366Z,5.3
2023-01-08T20:15:37.643Z,5.3
2023-01-08T20:18:24.950Z,5.3
2023-01-08T20:21:12.573Z,5.3
2023-01-08T20:24:02.367Z,5.2
2023-01-08T20:26:54.140Z,5.3
2023-01-08T20:29:41.608Z,5.3
2023-01-08T20:32:29.204Z,5.3
2023-01-08T20:35:16.596Z,5.2
2023-01-08T20:38:03.961Z,5.3
2023-01-08T20:40:51.232Z,5.3
2023-01-08T20:43:38.801Z,5.3
2023-01-08T20:46:26.158Z,5.3
2023-01-08T20:49:16.585Z,5.2
2023-01-08T20:52:05.469Z,5.2
2023-01-08T20:54:53.013Z,5.2
2023-01-08T20:57:40.271Z,5.2
2023-01-08T21:00:27.587Z,5.2
2023-01-08T21:03:14.845Z,5.2
2023-01-08T21:06:02.707Z,5.2
2023-01-08T21:08:51.578Z,5.1
2023-01-08T21:11:41.749Z,5.1
2023-01-08T21:14:29.171Z,5.1
2023-01-08T21:17:16.568Z,5
2023-01-08T21:20:04.095Z,5
2023-01-08T21:22:53.752Z,5
2023-01-08T21:25:42.293Z,4.9
2023-01-08T21:28:29.773Z,4.9
2023-01-08T21:31:17.918Z,4.9
2023-01-08T21:34:07.253Z,4.8
2023-01-08T21:36:56.067Z,4.8
2023-01-08T21:39:43.364Z,4.7
2023-01-08T21:42:32.006Z,4.7
2023-01-08T21:45:51.193Z,4.7
2023-01-08T21:48:42.232Z,4.7
2023-01-08T21:51:34.480Z,4.7
2023-01-08T21:54:53.745Z,4.7
2023-01-08T21:57:42.625Z,4.6
2023-01-08T22:00:30.266Z,4.6
2023-01-08T22:03:17.737Z,4.5
2023-01-08T22:06:05.059Z,4.5
2023-01-08T22:08:52.808Z,4.5
2023-01-08T22:11:40.169Z,4.5
2023-01-08T22:14:27.739Z,4.5
2023-01-08T22:17:15.338Z,4.5
2023-01-08T22:20:03.097Z,4.5
2023-01-08T22:22:54.286Z,4.5
2023-01-08T22:25:41.752Z,4.5
2023-01-08T22:28:29.057Z,4.5
2023-01-08T22:31:16.638Z,4.6
2023-01-08T22:34:03.986Z,4.6
2023-01-08T22:36:51.270Z,4.6
2023-01-08T22:39:38.796Z,4.5
2023-01-08T22:42:26.170Z,4.5
2023-01-08T22:45:13.463Z,4.5
2023-01-08T22:48:01.317Z,4.5
2023-01-08T22:50:49.486Z,4.5
2023-01-08T22:53:37.291Z,4.5
2023-01-08T22:56:24.614Z,4.4
2023-01-08T22:59:12.332Z,4.4
2023-01-08T23:01:59.634Z,4.4
2023-01-08T23:04:47.678Z,4.5
2023-01-08T23:07:35.613Z,4.5
2023-01-08T23:10:23.052Z,4.5
2023-01-08T23:13:10.394Z,4.5
2023-01-08T23:15:58.311Z,4.4
2023-01-08T23:18:45.667Z,4.4
2023-01-08T23:21:32.977Z,4.4
2023-01-08T23:24:22.990Z,4.4
2023-01-08T23:27:12.298Z,4.4
2023-01-08T23:29:59.603Z,4.4
2023-01-08T23:32:48.259Z,4.4
2023-01-08T23:35:35.545Z,4.4
2023-01-08T23:38:22.897Z,4.4
2023-01-08T23:41:10.184Z,4.4
2023-01-08T23:43:57.553Z,4.4
2023-01-08T23:46:46.235Z,4.4
2023-01-08T23:49:33.529Z,4.4
2023-01-08T23:52:21.073Z,4.4
2023-01-08T23:55:08.350Z,4.4
2023-01-08T23:57:56.113Z,4.4
